Time;durP1;ratioP1;P1;durP2;ratioP2;P2;SDS_P1;SDS_P2;PMS_P1;PMS_P2;Temp;Humidity;BMP_temperature;BMP_pressure;BME280_temperature;BME280_humidity;BME280_pressure;Samples;Min_cycle;Max_cycle;Signal;HPM_P1;HPM_P2
2021/10/20 00:02:05;;;;;;;22.67;14.43;;;;;;;4.99;59.94;100743.33;1710427;83;21048;-68
2021/10/20 00:04:32;;;;;;;23.62;17.02;;;;;;;4.87;60.25;100746.97;1721926;83;21167;-70
2021/10/20 00:06:59;;;;;;;25.08;16.62;;;;;;;4.79;60.65;100745.25;1677217;83;21563;-68
2021/10/20 00:09:26;;;;;;;29.60;17.12;;;;;;;4.77;60.99;100752.59;1713998;82;20988;-68
2021/10/20 00:11:54;;;;;;;26.62;14.53;;;;;;;4.78;61.20;100758.75;1699205;83;20952;-67
2021/10/20 00:14:22;;;;;;;24.27;14.85;;;;;;;4.71;60.95;100765.82;1685745;84;21044;-67
2021/10/20 00:16:49;;;;;;;19.98;12.82;;;;;;;4.54;61.29;100752.39;1672292;85;21116;-66
2021/10/20 00:19:16;;;;;;;22.27;15.65;;;;;;;4.39;61.61;100753.22;1682939;84;21039;-67
2021/10/20 00:21:42;;;;;;;25.52;15.72;;;;;;;4.20;62.22;100739.11;1723814;82;21487;-68
2021/10/20 00:24:09;;;;;;;22.60;13.95;;;;;;;4.12;62.94;100739.71;1709993;82;21495;-67
2021/10/20 00:26:36;;;;;;;16.52;10.13;;;;;;;4.13;63.29;100726.70;1733145;82;21019;-68
2021/10/20 00:29:03;;;;;;;19.80;12.18;;;;;;;4.17;63.46;100727.48;1735377;82;21151;-67
2021/10/20 00:31:29;;;;;;;23.85;14.15;;;;;;;4.28;63.14;100721.71;1723866;82;21496;-69
2021/10/20 00:33:56;;;;;;;18.70;12.05;;;;;;;4.28;63.14;100721.71;1705732;83;21012;-70
2021/10/20 00:36:22;;;;;;;18.92;11.33;;;;;;;4.36;63.09;100722.14;1705356;84;21603;-69
2021/10/20 00:38:48;;;;;;;20.65;13.13;;;;;;;4.42;62.77;100725.37;1680500;83;20999;-69
2021/10/20 00:41:15;;;;;;;24.63;14.28;;;;;;;4.48;62.47;100721.98;1671964;84;21494;-69
2021/10/20 00:43:42;;;;;;;24.72;14.03;;;;;;;4.53;62.26;100734.23;1705402;83;20948;-70
2021/10/20 00:46:08;;;;;;;24.35;12.47;;;;;;;4.61;61.88;100726.14;1628473;87;20987;-69
2021/10/20 00:48:34;;;;;;;14.90;9.63;;;;;;;4.61;61.88;100726.14;1643689;87;21063;-66
2021/10/20 00:51:01;;;;;;;28.00;10.30;;;;;;;4.66;61.67;100706.92;1621055;87;21126;-69
2021/10/20 00:53:27;;;;;;;15.63;8.48;;;;;;;4.66;61.67;100706.92;1620814;87;21092;-68
2021/10/20 00:55:53;;;;;;;12.18;9.08;;;;;;;4.72;61.54;100704.86;1643294;87;21027;-70
2021/10/20 00:58:20;;;;;;;22.10;12.10;;;;;;;4.75;61.46;100709.80;1641655;85;21040;-69
2021/10/20 01:00:46;;;;;;;23.92;11.80;;;;;;;4.81;60.73;100697.90;1647242;85;21228;-69
2021/10/20 01:03:12;;;;;;;27.30;12.98;;;;;;;4.81;60.73;100697.90;1670763;84;21016;-69
2021/10/20 01:05:40;;;;;;;18.05;11.60;;;;;;;4.81;60.75;100694.41;1649085;85;21047;-69
2021/10/20 01:08:06;;;;;;;23.07;13.20;;;;;;;4.81;60.75;100703.23;1685970;84;21517;-70
2021/10/20 01:10:34;;;;;;;19.62;11.70;;;;;;;4.82;60.62;100715.55;1700263;83;21055;-69
2021/10/20 01:13:00;;;;;;;21.35;11.78;;;;;;;4.82;60.62;100715.55;1646565;85;21002;-69
2021/10/20 01:15:27;;;;;;;17.25;11.30;;;;;;;4.82;60.56;100710.72;1667699;84;21067;-70
2021/10/20 01:17:53;;;;;;;18.75;12.37;;;;;;;4.82;60.47;100710.22;1684687;84;21153;-69
2021/10/20 01:20:24;;;;;;;18.07;11.43;;;;;;;4.84;60.14;100710.04;1671359;84;20934;-69
2021/10/20 01:22:50;;;;;;;17.07;10.98;;;;;;;4.85;60.10;100711.67;1659987;85;21052;-70
2021/10/20 01:25:17;;;;;;;22.22;12.18;;;;;;;4.86;59.93;100706.66;1693706;83;20995;-70
2021/10/20 01:27:43;;;;;;;19.17;13.40;;;;;;;4.85;59.74;100710.33;1720066;83;21042;-69
2021/10/20 01:30:11;;;;;;;28.40;14.33;;;;;;;4.84;59.65;100710.04;1710495;83;21081;-68
2021/10/20 01:32:39;;;;;;;21.57;12.00;;;;;;;4.82;59.56;100709.39;1692212;84;20941;-68
2021/10/20 01:35:06;;;;;;;20.77;13.40;;;;;;;4.80;59.49;100709.56;1691918;84;21069;-68
2021/10/20 01:37:33;;;;;;;21.20;12.10;;;;;;;4.75;59.52;100697.31;1674887;84;21014;-68
2021/10/20 01:39:59;;;;;;;22.10;13.35;;;;;;;4.68;59.48;100708.91;1691093;84;21549;-68
2021/10/20 01:42:26;;;;;;;22.17;14.13;;;;;;;4.68;59.48;100708.91;1657622;86;21096;-67
2021/10/20 01:44:53;;;;;;;26.93;15.32;;;;;;;4.63;59.60;100699.32;1681022;83;21548;-67
2021/10/20 01:47:20;;;;;;;26.75;13.72;;;;;;;4.58;59.71;100701.72;1690086;83;21574;-67
2021/10/20 01:49:48;;;;;;;24.10;15.00;;;;;;;4.50;59.54;100697.33;1704794;83;21020;-69
2021/10/20 01:52:15;;;;;;;19.15;12.65;;;;;;;4.45;59.74;100700.22;1685714;85;21001;-70
2021/10/20 01:54:41;;;;;;;21.82;14.50;;;;;;;4.39;59.94;100705.78;1721594;82;22045;-70
2021/10/20 01:57:07;;;;;;;24.77;15.48;;;;;;;4.33;60.21;100698.52;1664943;84;21088;-69
2021/10/20 01:59:34;;;;;;;24.12;15.38;;;;;;;4.30;60.38;100702.89;1692669;83;21035;-70
2021/10/20 02:02:03;;;;;;;19.07;12.00;;;;;;;4.19;60.42;100708.17;1692105;84;20936;-69
2021/10/20 02:04:30;;;;;;;20.45;15.35;;;;;;;4.19;60.42;100708.17;1625389;86;21520;-69
2021/10/20 02:06:58;;;;;;;19.00;12.68;;;;;;;4.14;60.45;100711.88;1690209;83;21698;-69
2021/10/20 02:09:24;;;;;;;19.05;11.40;;;;;;;4.10;60.55;100711.94;1692174;83;21573;-68
2021/10/20 02:11:50;;;;;;;16.42;11.08;;;;;;;4.09;60.63;100706.78;1690538;83;21016;-68
2021/10/20 02:14:17;;;;;;;18.23;11.03;;;;;;;4.09;60.75;100710.27;1697886;83;21545;-72
2021/10/20 02:16:43;;;;;;;14.73;9.68;;;;;;;4.12;60.80;100711.77;1672463;85;21047;-69
2021/10/20 02:19:11;;;;;;;17.92;11.90;;;;;;;4.16;60.72;100698.40;1695808;83;22140;-70
2021/10/20 02:21:38;;;;;;;14.73;10.43;;;;;;;4.20;60.70;100703.67;1694798;83;21030;-70
2021/10/20 02:24:05;;;;;;;13.75;9.25;;;;;;;4.21;60.64;100700.01;1685841;84;21040;-70
2021/10/20 02:26:32;;;;;;;13.75;8.88;;;;;;;4.24;60.62;100704.95;1692896;83;22006;-70
2021/10/20 02:28:59;;;;;;;15.00;8.88;;;;;;;4.27;60.63;100714.72;1674176;84;21063;-70
2021/10/20 02:31:26;;;;;;;16.12;8.40;;;;;;;4.31;60.53;100709.38;1720831;83;21107;-69
2021/10/20 02:33:52;;;;;;;13.60;9.20;;;;;;;4.36;60.46;100718.95;1693965;83;21044;-69
2021/10/20 02:36:18;;;;;;;14.87;8.70;;;;;;;4.42;60.34;100717.88;1705535;83;20936;-69
2021/10/20 02:38:45;;;;;;;14.38;8.25;;;;;;;4.45;60.15;100722.86;1627154;87;21030;-70
2021/10/20 02:41:11;;;;;;;16.02;8.83;;;;;;;4.50;60.05;100723.14;1654186;85;21519;-68
2021/10/20 02:43:39;;;;;;;19.20;8.58;;;;;;;4.53;59.90;100729.41;1675850;85;21982;-68
2021/10/20 02:46:06;;;;;;;12.30;8.55;;;;;;;4.57;59.75;100730.69;1663239;85;21114;-69
2021/10/20 02:48:33;;;;;;;10.08;7.33;;;;;;;4.59;59.59;100730.84;1654075;85;21068;-70
2021/10/20 02:50:59;;;;;;;13.28;7.70;;;;;;;4.64;59.37;100735.61;1655128;85;21078;-69
2021/10/20 02:53:25;;;;;;;10.68;7.80;;;;;;;4.66;59.13;100735.73;1654098;85;21070;-67
2021/10/20 02:55:52;;;;;;;11.25;7.25;;;;;;;4.69;58.99;100742.05;1652985;84;21232;-69
2021/10/20 02:58:18;;;;;;;15.30;8.88;;;;;;;4.72;58.87;100751.48;1705534;82;20948;-67
2021/10/20 03:00:44;;;;;;;12.10;8.55;;;;;;;4.73;58.78;100741.16;1711878;83;20924;-68
2021/10/20 03:03:11;;;;;;;12.50;7.70;;;;;;;4.78;58.63;100741.42;1702323;83;21059;-69
2021/10/20 03:05:37;;;;;;;12.07;8.20;;;;;;;4.82;58.36;100736.88;1728777;82;21102;-68
2021/10/20 03:08:04;;;;;;;12.82;7.67;;;;;;;4.87;58.07;100727.48;1683768;84;21210;-69
2021/10/20 03:10:31;;;;;;;15.25;7.50;;;;;;;4.90;57.79;100720.43;1701423;84;20990;-69
2021/10/20 03:12:57;;;;;;;13.65;8.45;;;;;;;4.90;57.83;100720.43;1710055;83;20951;-68
2021/10/20 03:15:23;;;;;;;10.45;7.33;;;;;;;4.91;57.85;100722.09;1713716;83;21048;-70
2021/10/20 03:17:51;;;;;;;12.98;8.23;;;;;;;4.93;57.83;100728.08;1717224;83;21099;-68
2021/10/20 03:20:17;;;;;;;11.78;8.68;;;;;;;4.94;57.84;100727.06;1693597;83;21012;-70
2021/10/20 03:22:44;;;;;;;12.43;7.97;;;;;;;4.95;57.85;100718.86;1728649;82;21014;-68
2021/10/20 03:25:12;;;;;;;13.30;8.08;;;;;;;4.96;57.66;100713.85;1685665;84;21512;-69
2021/10/20 03:27:45;;;;;;;15.28;11.03;;;;;;;4.96;57.83;100712.52;1674265;84;21048;-71
2021/10/20 03:30:12;;;;;;;18.40;9.73;;;;;;;4.95;57.91;100706.87;1677615;83;22207;-70
2021/10/20 03:32:39;;;;;;;17.85;10.03;;;;;;;4.95;57.96;100709.53;1647427;85;21895;-72
2021/10/20 03:35:06;;;;;;;17.73;10.45;;;;;;;4.93;57.98;100701.41;1656894;85;21024;-72
2021/10/20 03:37:33;;;;;;;11.35;8.40;;;;;;;4.92;58.10;100699.25;1687503;85;20988;-72
2021/10/20 03:40:00;;;;;;;17.17;10.20;;;;;;;4.93;58.15;100694.75;1645072;86;21027;-72
2021/10/20 03:42:27;;;;;;;14.10;9.05;;;;;;;4.93;58.13;100703.58;1644663;86;21023;-71
2021/10/20 03:44:53;;;;;;;14.15;9.48;;;;;;;4.95;58.21;100708.70;1619023;86;21188;-70
2021/10/20 03:47:20;;;;;;;14.03;7.20;;;;;;;4.95;57.92;100710.86;1670603;85;21055;-71
2021/10/20 03:49:47;;;;;;;15.85;9.60;;;;;;;4.94;57.48;100715.87;1652216;86;21094;-71
2021/10/20 03:52:14;;;;;;;14.50;10.18;;;;;;;4.96;57.62;100713.85;1647084;86;21014;-69
2021/10/20 03:54:40;;;;;;;15.20;9.28;;;;;;;4.98;57.67;100723.84;1665956;84;21055;-70
2021/10/20 03:57:06;;;;;;;19.05;10.45;;;;;;;4.99;57.61;100717.47;1684337;84;21292;-69
2021/10/20 03:59:33;;;;;;;17.10;10.23;;;;;;;5.00;57.70;100707.13;1668764;85;21010;-69
2021/10/20 04:02:00;;;;;;;13.58;9.65;;;;;;;5.02;57.62;100710.44;1647204;86;21027;-69
2021/10/20 04:04:26;;;;;;;15.83;8.85;;;;;;;5.00;57.64;100708.96;1654597;84;21151;-69
2021/10/20 04:06:54;;;;;;;24.45;13.13;;;;;;;4.99;57.49;100706.80;1692858;84;21040;-69
2021/10/20 04:09:20;;;;;;;17.73;9.33;;;;;;;4.99;57.56;100704.67;1640039;85;21041;-70
2021/10/20 04:11:47;;;;;;;10.35;8.23;;;;;;;5.03;57.51;100710.77;1634604;86;21615;-69
2021/10/20 04:14:13;;;;;;;14.20;8.93;;;;;;;5.04;57.34;100704.39;1652335;85;21619;-70
2021/10/20 04:16:40;;;;;;;10.45;8.05;;;;;;;5.09;57.24;100706.50;1681493;84;21082;-69
2021/10/20 04:19:06;;;;;;;10.70;7.20;;;;;;;5.09;57.01;100701.99;1671280;84;21548;-69
2021/10/20 04:21:32;;;;;;;16.37;11.73;;;;;;;5.12;57.00;100696.80;1647095;85;21576;-69
2021/10/20 04:23:58;;;;;;;17.77;10.63;;;;;;;5.06;57.04;100693.05;1647272;85;21047;-68
2021/10/20 04:26:25;;;;;;;18.25;11.20;;;;;;;5.06;57.18;100695.72;1676433;84;21089;-68
2021/10/20 04:28:51;;;;;;;13.68;8.90;;;;;;;5.07;57.25;100693.88;1669000;86;21039;-68
2021/10/20 04:31:17;;;;;;;15.38;9.30;;;;;;;5.04;57.30;100689.73;1676778;84;21023;-70
2021/10/20 04:33:44;;;;;;;20.85;11.60;;;;;;;5.01;57.47;100698.13;1642410;84;21072;-69
2021/10/20 04:36:10;;;;;;;16.50;11.20;;;;;;;4.94;57.40;100699.88;1700004;83;21062;-68
2021/10/20 04:38:38;;;;;;;17.37;12.20;;;;;;;4.90;57.35;100703.94;1727794;83;20924;-70
2021/10/20 04:41:05;;;;;;;23.00;14.90;;;;;;;4.85;57.48;100705.00;1720162;82;21024;-70
2021/10/20 04:43:32;;;;;;;24.02;14.07;;;;;;;4.76;57.59;100708.30;1717670;83;21007;-68
2021/10/20 04:45:58;;;;;;;20.90;12.95;;;;;;;4.71;57.95;100712.53;1702482;83;21154;-68
2021/10/20 04:48:24;;;;;;;14.98;11.55;;;;;;;4.65;58.22;100698.64;1700246;83;21003;-68
2021/10/20 04:50:51;;;;;;;15.08;10.15;;;;;;;4.61;58.32;100701.33;1671498;85;21531;-68
2021/10/20 04:53:17;;;;;;;16.55;9.78;;;;;;;4.57;58.60;100706.21;1647104;85;21608;-70
2021/10/20 04:55:45;;;;;;;15.98;11.25;;;;;;;4.54;58.84;100697.27;1670892;84;20999;-69
2021/10/20 04:58:11;;;;;;;17.27;11.35;;;;;;;4.54;59.03;100699.11;1647235;85;21120;-69
2021/10/20 05:00:38;;;;;;;13.72;10.82;;;;;;;4.52;59.23;100692.62;1648678;84;21088;-71
2021/10/20 05:03:04;;;;;;;18.95;12.85;;;;;;;4.51;59.36;100687.50;1692726;84;21059;-70
2021/10/20 05:05:31;;;;;;;19.85;13.05;;;;;;;4.49;59.50;100680.19;1657990;84;21204;-69
2021/10/20 05:07:58;;;;;;;20.88;14.40;;;;;;;4.43;59.90;100676.93;1676131;84;21054;-69
2021/10/20 05:10:26;;;;;;;21.95;14.50;;;;;;;4.32;60.41;100664.91;1676220;84;21330;-69
2021/10/20 05:12:54;;;;;;;19.85;12.33;;;;;;;4.19;60.63;100663.41;1668735;85;21591;-70
2021/10/20 05:15:20;;;;;;;17.73;11.28;;;;;;;4.10;61.01;100668.51;1686079;84;21521;-70
2021/10/20 05:17:47;;;;;;;18.02;12.95;;;;;;;4.04;61.42;100666.57;1671528;84;21063;-69
2021/10/20 05:20:15;;;;;;;17.75;11.60;;;;;;;4.01;61.72;100669.61;1648579;84;21644;-68
2021/10/20 05:22:42;;;;;;;22.27;12.07;;;;;;;3.96;62.23;100672.83;1676456;84;21157;-69
2021/10/20 05:25:11;;;;;;;21.90;14.00;;;;;;;3.97;62.56;100666.50;1711732;83;21642;-69
2021/10/20 05:27:39;;;;;;;19.48;13.15;;;;;;;3.95;62.90;100664.52;1646064;85;21010;-71
2021/10/20 05:30:08;;;;;;;23.25;11.65;;;;;;;3.94;63.09;100664.19;1670831;85;21068;-69
2021/10/20 05:32:35;;;;;;;19.85;11.80;;;;;;;3.94;63.10;100663.68;1625727;85;21052;-67
2021/10/20 05:35:02;;;;;;;17.73;11.12;;;;;;;3.99;63.06;100651.16;1675803;84;21240;-67
2021/10/20 05:37:28;;;;;;;18.57;11.10;;;;;;;4.01;62.98;100655.80;1670784;84;21520;-67
2021/10/20 05:39:55;;;;;;;27.95;12.15;;;;;;;4.02;63.27;100653.47;1670495;85;21427;-66
2021/10/20 05:42:21;;;;;;;27.10;13.58;;;;;;;4.05;63.39;100653.09;1647388;85;20983;-67
2021/10/20 05:44:47;;;;;;;19.07;12.50;;;;;;;4.08;63.32;100650.55;1647587;85;21047;-69
2021/10/20 05:47:14;;;;;;;21.23;12.75;;;;;;;4.08;63.56;100651.88;1647233;84;21528;-74
2021/10/20 05:49:41;;;;;;;18.17;12.10;;;;;;;4.11;63.71;100653.70;1670449;85;20999;-68
2021/10/20 05:52:07;;;;;;;19.98;13.08;;;;;;;4.15;63.91;100647.48;1647296;85;21000;-68
2021/10/20 05:54:34;;;;;;;20.08;14.70;;;;;;;4.20;64.07;100655.25;1670520;85;21002;-69
2021/10/20 05:57:01;;;;;;;24.00;14.05;;;;;;;4.24;64.26;100655.19;1647337;84;21083;-69
2021/10/20 05:59:27;;;;;;;21.20;14.45;;;;;;;4.27;64.38;100651.31;1643249;87;21259;-69
2021/10/20 06:01:53;;;;;;;26.90;14.50;;;;;;;4.33;64.41;100645.26;1686046;84;21065;-70
2021/10/20 06:04:19;;;;;;;18.57;12.28;;;;;;;4.33;64.47;100642.09;1700583;83;21043;-67
2021/10/20 06:06:46;;;;;;;20.77;13.43;;;;;;;4.37;64.49;100643.87;1646176;85;21106;-67
2021/10/20 06:09:12;;;;;;;17.15;11.63;;;;;;;4.43;64.59;100635.14;1682287;84;21047;-69
2021/10/20 06:11:39;;;;;;;18.60;10.95;;;;;;;4.49;64.53;100633.58;1670556;85;21206;-66
2021/10/20 06:14:07;;;;;;;19.87;11.25;;;;;;;4.54;64.51;100632.52;1670932;85;20975;-67
2021/10/20 06:16:36;;;;;;;18.45;10.60;;;;;;;4.57;64.51;100618.30;1647012;85;21027;-68
2021/10/20 06:19:05;;;;;;;22.62;9.13;;;;;;;4.62;64.23;100613.23;1682272;84;21030;-67
2021/10/20 06:21:32;;;;;;;17.82;10.65;;;;;;;4.64;64.12;100606.39;1643124;87;21538;-66
2021/10/20 06:23:58;;;;;;;15.75;11.18;;;;;;;4.69;64.04;100607.48;1661114;85;21698;-68
2021/10/20 06:26:24;;;;;;;17.20;10.58;;;;;;;4.73;63.95;100608.75;1676944;84;21536;-67
2021/10/20 06:28:51;;;;;;;13.93;10.48;;;;;;;4.76;63.76;100596.37;1629968;86;21000;-69
2021/10/20 06:31:17;;;;;;;14.53;10.08;;;;;;;4.86;63.61;100598.72;1672185;84;21052;-70
2021/10/20 06:33:43;;;;;;;18.73;9.23;;;;;;;4.94;63.38;100615.91;1690232;84;22209;-68
2021/10/20 06:36:29;;;;;;;14.45;9.75;;;;;;;5.02;63.31;100617.64;1689936;84;21161;-68
2021/10/20 06:38:55;;;;;;;11.75;8.58;;;;;;;5.10;63.03;100614.83;1686838;83;20982;-68
2021/10/20 06:41:21;;;;;;;21.85;9.85;;;;;;;5.20;62.80;100612.66;1678008;83;21920;-68
2021/10/20 06:43:48;;;;;;;17.27;10.28;;;;;;;5.30;62.47;100615.00;1688094;83;21551;-69
2021/10/20 06:46:14;;;;;;;14.98;8.83;;;;;;;5.40;62.09;100606.98;1687061;83;21505;-68
2021/10/20 06:48:41;;;;;;;14.07;8.63;;;;;;;5.50;61.73;100599.47;1650893;86;21091;-70
2021/10/20 06:51:09;;;;;;;9.68;8.55;;;;;;;5.59;61.48;100576.95;1675687;84;23956;-69
2021/10/20 06:53:37;;;;;;;22.50;10.95;;;;;;;5.68;61.40;100590.96;1721708;83;21026;-70
2021/10/20 06:56:05;;;;;;;17.42;9.55;;;;;;;5.76;60.95;100586.79;1702916;83;21032;-68
2021/10/20 06:58:32;;;;;;;13.90;9.78;;;;;;;5.83;60.84;100587.67;1631390;86;21097;-68
2021/10/20 07:00:58;;;;;;;14.33;9.83;;;;;;;5.91;60.66;100588.86;1632923;86;21556;-68
2021/10/20 07:03:25;;;;;;;17.27;9.43;;;;;;;5.97;60.49;100586.75;1670073;83;21043;-67
2021/10/20 07:05:51;;;;;;;18.15;9.85;;;;;;;6.07;60.29;100590.39;1711983;83;21524;-70
2021/10/20 07:08:17;;;;;;;15.35;10.58;;;;;;;6.15;60.18;100584.87;1712063;83;21157;-71
2021/10/20 07:10:43;;;;;;;33.05;14.45;;;;;;;6.25;59.80;100589.33;1646498;86;21051;-70
2021/10/20 07:13:10;;;;;;;15.68;9.48;;;;;;;6.37;59.28;100588.26;1630145;86;21070;-70
2021/10/20 07:15:36;;;;;;;16.10;8.78;;;;;;;6.46;59.11;100579.03;1656532;86;20960;-69
2021/10/20 07:18:04;;;;;;;17.77;9.55;;;;;;;6.55;58.55;100571.14;1638660;83;21047;-68
2021/10/20 07:20:30;;;;;;;15.25;10.00;;;;;;;6.65;57.97;100571.58;1715294;83;21060;-67
2021/10/20 07:22:56;;;;;;;20.17;13.20;;;;;;;6.75;58.04;100573.34;1661990;84;21020;-71
2021/10/20 07:25:23;;;;;;;13.78;9.88;;;;;;;6.84;57.60;100577.47;1678746;85;21833;-69
2021/10/20 07:27:49;;;;;;;22.73;10.72;;;;;;;6.92;57.06;100579.11;1692532;84;21023;-69
2021/10/20 07:30:16;;;;;;;15.25;10.43;;;;;;;7.00;56.96;100570.38;1691884;84;21063;-68
2021/10/20 07:32:43;;;;;;;15.00;9.03;;;;;;;7.10;56.98;100573.18;1654913;85;21040;-70
2021/10/20 07:35:11;;;;;;;16.37;9.30;;;;;;;7.17;56.84;100573.98;1675793;85;21031;-69
2021/10/20 07:37:38;;;;;;;13.30;9.30;;;;;;;7.25;56.73;100563.89;1675599;84;21954;-73
2021/10/20 07:40:07;;;;;;;18.25;9.93;;;;;;;7.37;56.59;100558.75;1653860;85;21102;-70
2021/10/20 07:42:36;;;;;;;12.50;9.18;;;;;;;7.50;56.49;100553.89;1687551;84;21043;-70
2021/10/20 07:45:02;;;;;;;15.15;9.73;;;;;;;7.63;56.18;100545.30;1648657;87;21030;-68
2021/10/20 07:47:30;;;;;;;17.37;8.68;;;;;;;7.78;56.13;100546.41;1623503;87;21075;-68
2021/10/20 07:49:56;;;;;;;13.28;8.33;;;;;;;7.94;55.79;100543.27;1677447;84;21092;-69
2021/10/20 07:52:25;;;;;;;14.95;8.78;;;;;;;8.09;55.45;100537.66;1679908;84;21018;-69
2021/10/20 07:54:52;;;;;;;13.78;9.05;;;;;;;8.19;55.34;100533.48;1704179;83;21008;-70
2021/10/20 07:57:18;;;;;;;14.25;8.55;;;;;;;8.32;55.05;100527.26;1706510;83;20994;-68
2021/10/20 07:59:45;;;;;;;16.55;9.25;;;;;;;8.42;55.09;100529.47;1679133;85;21027;-69
2021/10/20 08:02:13;;;;;;;13.85;9.08;;;;;;;8.50;55.26;100526.53;1686563;84;21960;-70
2021/10/20 08:04:41;;;;;;;13.13;8.18;;;;;;;8.59;55.27;100527.39;1676010;85;21587;-69
2021/10/20 08:07:08;;;;;;;15.38;9.93;;;;;;;8.71;55.33;100538.27;1675787;85;21131;-68
2021/10/20 08:09:34;;;;;;;17.50;10.72;;;;;;;8.83;55.24;100533.00;1669514;84;21055;-68
2021/10/20 08:12:00;;;;;;;13.65;9.18;;;;;;;8.97;54.88;100529.20;1654976;85;21183;-69
2021/10/20 08:14:29;;;;;;;16.40;9.58;;;;;;;9.07;54.96;100524.97;1675805;85;22257;-69
2021/10/20 08:16:56;;;;;;;14.60;8.88;;;;;;;9.21;54.75;100522.98;1676017;85;20924;-70
2021/10/20 08:19:24;;;;;;;12.25;7.87;;;;;;;9.31;54.83;100520.62;1689346;84;20948;-68
2021/10/20 08:21:51;;;;;;;15.10;8.55;;;;;;;9.40;54.72;100523.87;1680282;84;21039;-70
2021/10/20 08:24:17;;;;;;;15.58;9.13;;;;;;;9.47;54.75;100507.98;1689368;83;21071;-69
2021/10/20 08:26:43;;;;;;;19.10;9.00;;;;;;;9.53;54.75;100504.41;1675728;85;22975;-68
2021/10/20 08:29:10;;;;;;;11.83;7.87;;;;;;;9.57;54.72;100496.20;1709765;83;20960;-69
2021/10/20 08:31:38;;;;;;;13.93;8.03;;;;;;;9.59;54.97;100487.93;1682560;84;20996;-70
2021/10/20 08:34:04;;;;;;;13.62;9.55;;;;;;;9.63;54.95;100485.09;1682617;84;21027;-69
2021/10/20 08:36:32;;;;;;;12.75;8.83;;;;;;;9.67;54.89;100489.48;1692301;84;20932;-69
2021/10/20 08:38:58;;;;;;;11.45;8.50;;;;;;;9.74;55.17;100486.18;1703920;84;21133;-68
2021/10/20 08:41:25;;;;;;;12.10;9.30;;;;;;;9.78;55.41;100482.85;1709264;83;20951;-69
2021/10/20 08:43:52;;;;;;;11.65;9.35;;;;;;;9.85;55.59;100484.91;1709453;83;21508;-69
2021/10/20 08:46:23;;;;;;;15.70;9.90;;;;;;;9.94;55.88;100474.67;1656187;85;21749;-69
2021/10/20 08:48:49;;;;;;;13.10;9.18;;;;;;;10.05;55.86;100477.95;1718919;83;22141;-69
2021/10/20 08:51:16;;;;;;;12.03;9.15;;;;;;;10.18;55.96;100482.34;1719265;83;21380;-68
2021/10/20 08:53:43;;;;;;;14.05;7.95;;;;;;;10.30;56.04;100478.67;1719216;83;21650;-68
2021/10/20 08:56:13;;;;;;;11.73;9.08;;;;;;;10.37;56.90;100467.80;1719211;83;20980;-69
2021/10/20 08:58:42;;;;;;;13.75;10.13;;;;;;;10.42;57.42;100464.73;1718656;83;21039;-72
2021/10/20 09:01:08;;;;;;;19.17;9.33;;;;;;;10.46;58.24;100458.36;1686028;83;21044;-70
2021/10/20 09:03:35;;;;;;;16.70;10.60;;;;;;;10.50;58.64;100449.59;1694985;84;21751;-68
2021/10/20 09:06:04;;;;;;;19.23;10.60;;;;;;;10.56;58.53;100447.86;1682432;84;20992;-68
2021/10/20 09:08:45;;;;;;;15.55;11.78;;;;;;;10.60;58.82;100440.95;1663664;86;21039;-69
2021/10/20 09:11:29;;;;;;;16.67;12.10;;;;;;;10.67;58.96;100412.62;1647789;86;21043;-68
2021/10/20 09:14:11;;;;;;;14.83;10.55;;;;;;;10.74;59.43;100415.47;1705372;84;21035;-68
2021/10/20 09:16:40;;;;;;;14.95;10.05;;;;;;;10.85;59.17;100413.33;1709399;83;21370;-69
2021/10/20 09:19:13;;;;;;;13.70;10.03;;;;;;;10.96;58.96;100409.00;1664225;83;21487;-70
2021/10/20 09:21:59;;;;;;;15.65;11.08;;;;;;;11.09;58.71;100405.23;1711066;83;21024;-84
2021/10/20 09:24:37;;;;;;;18.32;11.68;;;;;;;11.24;58.47;100407.74;1648647;85;21058;-68
2021/10/20 09:27:05;;;;;;;17.20;11.95;;;;;;;11.37;59.07;100402.09;1674563;84;21060;-68
2021/10/20 09:29:33;;;;;;;15.93;11.75;;;;;;;11.54;59.13;100402.19;1677326;84;21972;-69
2021/10/20 09:32:00;;;;;;;18.25;11.53;;;;;;;11.66;59.23;100396.73;1714857;82;21028;-68
2021/10/20 09:34:35;;;;;;;18.85;13.08;;;;;;;11.76;59.17;100384.32;1709397;83;20991;-69
2021/10/20 09:37:06;;;;;;;24.27;13.75;;;;;;;11.85;59.09;100383.40;1678752;85;21566;-68
2021/10/20 09:39:34;;;;;;;14.95;10.40;;;;;;;11.92;59.10;100372.48;1678542;84;21588;-70
2021/10/20 09:42:12;;;;;;;13.98;11.12;;;;;;;11.96;59.23;100360.97;1675742;85;21696;-71
2021/10/20 09:44:51;;;;;;;19.95;14.95;;;;;;;11.96;59.17;100365.02;1678555;85;21020;-70
2021/10/20 09:47:19;;;;;;;17.75;13.30;;;;;;;11.96;59.56;100381.72;1663889;85;21059;-69
2021/10/20 09:49:54;;;;;;;20.95;11.97;;;;;;;12.00;59.79;100369.38;1664616;84;21556;-76
2021/10/20 09:52:25;;;;;;;17.07;13.78;;;;;;;12.06;59.99;100361.69;1632299;85;21079;-75
2021/10/20 09:54:51;;;;;;;19.20;14.45;;;;;;;12.11;60.62;100373.91;1675626;85;21539;-73
2021/10/20 09:57:18;;;;;;;16.50;12.82;;;;;;;12.15;61.04;100361.56;1676792;85;21035;-72
2021/10/20 09:59:45;;;;;;;21.77;14.78;;;;;;;12.21;61.23;100369.52;1635619;84;20998;-70
2021/10/20 10:02:15;;;;;;;20.57;14.63;;;;;;;12.26;61.27;100354.47;1671908;84;21011;-71
2021/10/20 10:04:41;;;;;;;29.10;15.45;;;;;;;12.31;61.26;100372.91;1627401;87;21034;-69
2021/10/20 10:07:08;;;;;;;16.73;13.32;;;;;;;12.38;61.34;100353.32;1675851;84;21262;-70
2021/10/20 10:09:35;;;;;;;19.55;15.03;;;;;;;12.45;61.36;100340.50;1692218;84;21064;-69
2021/10/20 10:12:15;;;;;;;19.67;15.60;;;;;;;12.56;61.25;100339.60;1662190;85;21575;-68
2021/10/20 10:14:49;;;;;;;18.98;14.18;;;;;;;12.66;61.11;100337.59;1675717;85;21752;-69
2021/10/20 10:17:17;;;;;;;22.32;14.93;;;;;;;12.72;61.12;100327.12;1653978;85;21082;-68
2021/10/20 10:19:47;;;;;;;26.35;14.63;;;;;;;12.78;61.15;100344.22;1681178;84;21864;-72
2021/10/20 10:22:26;;;;;;;20.50;15.85;;;;;;;12.87;60.93;100326.00;1666908;84;21064;-71
2021/10/20 10:24:59;;;;;;;23.22;14.10;;;;;;;12.92;60.80;100315.27;1641415;85;21095;-71
2021/10/20 10:27:28;;;;;;;19.42;14.73;;;;;;;12.98;60.68;100305.36;1695466;84;21560;-74
2021/10/20 10:29:58;;;;;;;22.37;16.00;;;;;;;13.04;60.61;100305.71;1668784;83;21008;-74
2021/10/20 10:32:26;;;;;;;19.85;15.35;;;;;;;13.12;60.60;100296.38;1697225;83;21042;-74
2021/10/20 10:34:53;;;;;;;20.23;13.22;;;;;;;13.22;60.23;100301.90;1716059;83;21050;-74
2021/10/20 10:37:31;;;;;;;21.27;14.90;;;;;;;13.24;60.24;100292.99;1663303;83;21496;-74
2021/10/20 10:40:21;;;;;;;20.32;14.78;;;;;;;13.24;60.33;100297.86;1711548;83;21572;-73
2021/10/20 10:42:49;;;;;;;22.40;15.28;;;;;;;13.29;60.31;100300.63;1690893;84;21492;-76
2021/10/20 10:45:24;;;;;;;24.77;14.13;;;;;;;13.35;60.15;100306.38;1692401;83;21060;-75
2021/10/20 10:48:05;;;;;;;23.62;16.97;;;;;;;13.37;60.13;100301.55;1704096;83;21028;-77
2021/10/20 10:50:49;;;;;;;22.73;16.23;;;;;;;13.41;60.27;100307.26;1683818;84;21088;-74
2021/10/20 10:53:32;;;;;;;21.25;14.45;;;;;;;13.51;60.30;100306.02;1657228;83;21103;-75
2021/10/20 10:56:06;;;;;;;;;;;;;;;13.57;60.37;100300.14;1694352;84;21048;-74
2021/10/20 10:59:00;;;;;;;24.35;14.55;;;;;;;13.64;60.26;100280.47;1691419;83;21140;-74
2021/10/20 11:01:46;;;;;;;26.52;14.93;;;;;;;13.73;60.09;100284.34;1710124;83;21548;-74
2021/10/20 11:04:23;;;;;;;24.20;13.80;;;;;;;13.83;59.95;100279.03;1697227;83;21055;-72
2021/10/20 11:06:52;;;;;;;19.10;14.65;;;;;;;13.92;59.70;100262.61;1697524;83;21006;-71
2021/10/20 11:09:22;;;;;;;22.27;15.08;;;;;;;13.95;59.59;100258.06;1688116;83;21106;-70
2021/10/20 11:11:53;;;;;;;19.65;14.47;;;;;;;13.95;59.59;100244.53;1655520;86;21831;-72
2021/10/20 11:14:25;;;;;;;20.50;16.00;;;;;;;13.90;59.81;100249.37;1697904;83;21509;-72
2021/10/20 11:17:09;;;;;;;21.35;15.32;;;;;;;13.88;59.94;100244.73;1689966;84;21576;-69
2021/10/20 11:19:36;;;;;;;22.98;16.95;;;;;;;13.88;60.02;100239.86;1641954;85;21506;-72
2021/10/20 11:22:07;;;;;;;20.27;16.07;;;;;;;13.87;60.15;100239.05;1689834;83;21013;-68
2021/10/20 11:24:42;;;;;;;24.85;15.83;;;;;;;13.86;60.26;100234.70;1688114;84;21337;-69